YM Kaohsiung — MCGF6 — position and weather

sailwx.info

Track history (hours):
 
Tides and Currents Weather Stations Pressure Air Temp Water Temp Dewpoint Dewpoint Depression Visibility Wind Speed Wind Dir Waves Ship Positions

YM Kaohsiung

Last reported at 2015-Jun-30 10:31 UTC. Time now 2015-Jul-02 09:45 UTC.
Position N 01°14' E 103°58'.

Length 260 m; draft 8 m.

Type: Cargo ship. MMSI: 235767000.

Date/timePositionNaut miles runAvg speedWind from/ knotsBaromVisibWave heightAir tempDewpointWater temp
2015-Jun-30 10:31N 01°14' E 103°58'9 9.5
2015-Jun-30 09:33N 01°12' E 103°49'6 5.7
2015-Jun-30 08:33N 01°17' E 103°45'0 0.1
2015-Jun-30 07:33N 01°17' E 103°45'0 0.1
2015-Jun-30 06:33N 01°17' E 103°45'0 0.0
2015-Jun-30 05:17N 01°17' E 103°45'0 0.1
2015-Jun-30 04:32N 01°17' E 103°45'0 0.0
2015-Jun-30 03:32N 01°17' E 103°45'0 0.0
2015-Jun-30 02:32N 01°17' E 103°45'0 0.0
2015-Jun-30 01:29N 01°17' E 103°45'0 0.0
2015-Jun-30 00:26N 01°17' E 103°45'0 0.0
2015-Jun-29 23:32N 01°17' E 103°45'0 0.0
2015-Jun-29 22:32N 01°17' E 103°45'0 0.0
2015-Jun-29 21:32N 01°17' E 103°45'0 0.1
2015-Jun-29 20:28N 01°17' E 103°45'0 0.1
2015-Jun-29 19:22N 01°17' E 103°45'0 0.0
2015-Jun-29 18:28N 01°17' E 103°45'0 0.1
2015-Jun-29 17:25N 01°17' E 103°45'0 0.1
2015-Jun-29 16:31N 01°17' E 103°45'2 1.5
2015-Jun-29 15:31N 01°16' E 103°46'9 9.5
2015-Jun-29 14:34N 01°14' E 103°55'5 4.7
2015-Jun-29 13:33N 01°15' E 103°59'5 0.2
2015-Jun-28 15:16N 01°15' E 104°05'811.1
2015-Jun-28 14:33N 01°13' E 103°57'1111.1
2015-Jun-28 13:32N 01°08' E 103°47'5 0.8
2015-Jun-28 07:06N 01°10' E 103°41'710.5
2015-Jun-28 06:29N 01°11' E 103°48'1111.8
2015-Jun-28 05:33N 01°15' E 103°58'2 1.9
2015-Jun-28 04:28N 01°17' E 103°58'0 0.0
2015-Jun-28 01:28N 01°17' E 103°58'0 0.0
2015-Jun-27 21:04N 01°17' E 103°58'0 0.1
2015-Jun-27 20:22N 01°17' E 103°58'0 0.1
2015-Jun-27 19:22N 01°17' E 103°58'0 0.0
2015-Jun-27 18:16N 01°17' E 103°58'0 0.0
2015-Jun-27 17:28N 01°17' E 103°58'0 0.0
2015-Jun-27 16:28N 01°17' E 103°58'0 0.1
2015-Jun-27 15:28N 01°17' E 103°58'0 0.0
2015-Jun-27 12:22N 01°17' E 103°58'0 0.0
2015-Jun-27 11:22N 01°17' E 103°58'0 0.0
2015-Jun-27 08:22N 01°17' E 103°58'0 0.0
2015-Jun-27 06:16N 01°17' E 103°58'0 0.1
2015-Jun-27 05:28N 01°17' E 103°58'0 0.2
2015-Jun-27 04:22N 01°17' E 103°58'2 2.3
2015-Jun-27 03:33N 01°16' E 103°59'1110.8
2015-Jun-27 02:33N 01°17' E 104°10'  
Track history (hours):
 
Tides and Currents Weather Stations Pressure Air Temp Water Temp Dewpoint Dewpoint Depression Visibility Wind Speed Wind Dir Waves Ship Positions

YM Kaohsiung

Last reported at 2015-Jun-30 10:31 UTC. Time now 2015-Jul-02 09:45 UTC.
Position N 01°14' E 103°58'.

Length 260 m; draft 8 m.

Type: Cargo ship. MMSI: 235767000.

Date/timePositionNaut miles runAvg speedWind from/ knotsBaromVisibWave heightAir tempDewpointWater temp
2015-Jun-30 10:31N 01°14' E 103°58'9 9.5
2015-Jun-30 09:33N 01°12' E 103°49'6 5.7
2015-Jun-30 08:33N 01°17' E 103°45'0 0.1
2015-Jun-30 07:33N 01°17' E 103°45'0 0.1
2015-Jun-30 06:33N 01°17' E 103°45'0 0.0
2015-Jun-30 05:17N 01°17' E 103°45'0 0.1
2015-Jun-30 04:32N 01°17' E 103°45'0 0.0
2015-Jun-30 03:32N 01°17' E 103°45'0 0.0
2015-Jun-30 02:32N 01°17' E 103°45'0 0.0
2015-Jun-30 01:29N 01°17' E 103°45'0 0.0
2015-Jun-30 00:26N 01°17' E 103°45'0 0.0
2015-Jun-29 23:32N 01°17' E 103°45'0 0.0
2015-Jun-29 22:32N 01°17' E 103°45'0 0.0
2015-Jun-29 21:32N 01°17' E 103°45'0 0.1
2015-Jun-29 20:28N 01°17' E 103°45'0 0.1
2015-Jun-29 19:22N 01°17' E 103°45'0 0.0
2015-Jun-29 18:28N 01°17' E 103°45'0 0.1
2015-Jun-29 17:25N 01°17' E 103°45'0 0.1
2015-Jun-29 16:31N 01°17' E 103°45'2 1.5
2015-Jun-29 15:31N 01°16' E 103°46'9 9.5
2015-Jun-29 14:34N 01°14' E 103°55'5 4.7
2015-Jun-29 13:33N 01°15' E 103°59'5 0.2
2015-Jun-28 15:16N 01°15' E 104°05'811.1
2015-Jun-28 14:33N 01°13' E 103°57'1111.1
2015-Jun-28 13:32N 01°08' E 103°47'5 0.8
2015-Jun-28 07:06N 01°10' E 103°41'710.5
2015-Jun-28 06:29N 01°11' E 103°48'1111.8
2015-Jun-28 05:33N 01°15' E 103°58'2 1.9
2015-Jun-28 04:28N 01°17' E 103°58'0 0.0
2015-Jun-28 01:28N 01°17' E 103°58'0 0.0
2015-Jun-27 21:04N 01°17' E 103°58'0 0.1
2015-Jun-27 20:22N 01°17' E 103°58'0 0.1
2015-Jun-27 19:22N 01°17' E 103°58'0 0.0
2015-Jun-27 18:16N 01°17' E 103°58'0 0.0
2015-Jun-27 17:28N 01°17' E 103°58'0 0.0
2015-Jun-27 16:28N 01°17' E 103°58'0 0.1
2015-Jun-27 15:28N 01°17' E 103°58'0 0.0
2015-Jun-27 12:22N 01°17' E 103°58'0 0.0
2015-Jun-27 11:22N 01°17' E 103°58'0 0.0
2015-Jun-27 08:22N 01°17' E 103°58'0 0.0
2015-Jun-27 06:16N 01°17' E 103°58'0 0.1
2015-Jun-27 05:28N 01°17' E 103°58'0 0.2
2015-Jun-27 04:22N 01°17' E 103°58'2 2.3
2015-Jun-27 03:33N 01°16' E 103°59'1110.8
2015-Jun-27 02:33N 01°17' E 104°10'  

Dump ship's entire track history